Time;durP1;ratioP1;P1;durP2;ratioP2;P2;SDS_P1;SDS_P2;PMS_P1;PMS_P2;Temp;Humidity;BMP_temperature;BMP_pressure;BME280_temperature;BME280_humidity;BME280_pressure;Samples;Min_cycle;Max_cycle;Signal;HPM_P1;HPM_P2
2023/06/03 00:01:03;;;;;;;4.25;1.77;;;17.20;83.50;;;;;;10475088;28;20250;-65
2023/06/03 00:06:04;;;;;;;1.98;1.30;;;17.10;83.40;;;;;;10473669;28;20024;-65
2023/06/03 00:11:05;;;;;;;2.63;1.38;;;17.10;83.40;;;;;;10490134;28;20388;-65
2023/06/03 00:16:06;;;;;;;2.55;1.30;;;17.10;83.30;;;;;;10475585;28;20051;-65
2023/06/03 00:21:09;;;;;;;2.20;1.40;;;17.00;83.10;;;;;;10474531;28;20025;-66
2023/06/03 00:26:09;;;;;;;3.13;1.83;;;17.10;83.00;;;;;;10478141;28;20024;-66
2023/06/03 00:31:10;;;;;;;2.97;1.65;;;17.00;82.90;;;;;;10482360;28;20025;-66
2023/06/03 00:36:13;;;;;;;2.78;1.50;;;17.00;82.70;;;;;;10485249;28;20028;-66
2023/06/03 00:41:13;;;;;;;2.50;1.30;;;16.90;82.60;;;;;;10481782;28;20028;-65
2023/06/03 00:46:17;;;;;;;1.92;1.50;;;16.90;82.50;;;;;;10488879;28;20029;-65
2023/06/03 00:51:18;;;;;;;2.22;1.40;;;16.90;82.40;;;;;;10488341;28;20107;-66
2023/06/03 00:56:19;;;;;;;2.88;1.40;;;16.80;82.20;;;;;;10485181;28;20578;-65
2023/06/03 01:01:21;;;;;;;2.25;1.48;;;16.80;82.10;;;;;;10482193;28;20031;-66
2023/06/03 01:06:27;;;;;;;1.67;1.13;;;16.80;82.00;;;;;;10483914;28;20069;-66
2023/06/03 01:11:42;;;;;;;2.95;1.23;;;16.80;81.80;;;;;;10471706;28;20033;-66
2023/06/03 01:16:48;;;;;;;2.30;1.30;;;16.70;81.40;;;;;;10476917;28;20064;-65
2023/06/03 01:21:53;;;;;;;2.30;1.20;;;16.70;82.10;;;;;;10477466;28;20112;-66
2023/06/03 01:26:53;;;;;;;3.53;0.95;;;16.70;81.30;;;;;;10473627;28;20016;-66
2023/06/03 01:31:56;;;;;;;1.95;1.00;;;16.60;81.10;;;;;;10482913;28;20077;-66
2023/06/03 01:36:57;;;;;;;1.85;1.05;;;16.60;81.00;;;;;;10475416;28;20381;-66
2023/06/03 01:41:57;;;;;;;1.63;1.00;;;16.60;80.90;;;;;;10483490;28;20020;-65
2023/06/03 01:46:58;;;;;;;2.58;1.20;;;16.50;80.60;;;;;;10480214;28;20028;-66
2023/06/03 01:51:59;;;;;;;1.08;0.88;;;16.50;80.50;;;;;;10477746;28;20024;-66
2023/06/03 01:57:00;;;;;;;1.52;1.05;;;16.50;80.40;;;;;;10482582;28;20353;-66
2023/06/03 02:02:00;;;;;;;2.53;1.10;;;16.40;80.30;;;;;;10486108;28;20054;-65
2023/06/03 02:07:02;;;;;;;3.05;1.00;;;16.40;80.20;;;;;;10485201;28;20029;-66
2023/06/03 02:12:03;;;;;;;1.27;0.98;;;16.40;80.10;;;;;;10475545;28;20044;-66
2023/06/03 02:17:04;;;;;;;1.20;0.75;;;16.30;80.00;;;;;;10471855;28;20416;-66
2023/06/03 02:22:05;;;;;;;1.67;0.95;;;16.30;79.80;;;;;;10478707;28;20021;-66
2023/06/03 02:27:06;;;;;;;2.60;1.02;;;16.30;79.70;;;;;;10479094;28;20510;-66
2023/06/03 02:32:07;;;;;;;1.27;0.82;;;16.30;79.60;;;;;;10469143;28;20017;-66
2023/06/03 02:37:10;;;;;;;1.50;0.80;;;16.30;79.50;;;;;;10478483;28;20021;-66
2023/06/03 02:42:11;;;;;;;1.45;0.98;;;16.20;79.40;;;;;;10476586;28;20074;-66
2023/06/03 02:47:12;;;;;;;2.83;0.98;;;16.20;79.30;;;;;;10480224;28;20480;-66
2023/06/03 02:52:12;;;;;;;1.60;1.00;;;16.10;79.20;;;;;;10483276;28;20500;-65
2023/06/03 02:57:13;;;;;;;1.30;0.80;;;16.10;79.10;;;;;;10483491;28;20048;-66
2023/06/03 03:02:17;;;;;;;2.97;1.05;;;16.10;79.00;;;;;;10480446;28;20520;-66
2023/06/03 03:07:20;;;;;;;0.90;0.75;;;16.00;78.90;;;;;;10478374;28;20028;-66
2023/06/03 03:12:21;;;;;;;1.00;0.80;;;16.00;78.80;;;;;;10489351;28;20593;-66
2023/06/03 03:17:21;;;;;;;1.50;0.95;;;16.00;78.80;;;;;;10478408;28;20025;-65
2023/06/03 03:22:22;;;;;;;1.60;0.80;;;16.00;78.70;;;;;;10475943;28;20037;-66
2023/06/03 03:27:23;;;;;;;2.75;0.80;;;15.90;78.60;;;;;;10487404;28;20021;-66
2023/06/03 03:32:23;;;;;;;3.60;0.80;;;15.90;78.50;;;;;;10475057;28;20035;-66
2023/06/03 03:37:25;;;;;;;1.42;0.77;;;15.90;78.50;;;;;;10482097;28;20048;-66
2023/06/03 03:42:26;;;;;;;1.23;0.60;;;15.90;78.40;;;;;;10472493;28;20055;-66
2023/06/03 03:47:27;;;;;;;0.98;0.80;;;15.80;78.20;;;;;;10479123;28;20111;-66
2023/06/03 03:52:30;;;;;;;0.90;0.60;;;15.70;78.10;;;;;;10485321;28;20040;-66
2023/06/03 03:57:31;;;;;;;2.85;0.80;;;15.70;78.10;;;;;;10474977;28;20078;-66
2023/06/03 04:02:33;;;;;;;0.70;0.50;;;15.80;78.00;;;;;;10478558;28;20488;-66
2023/06/03 04:07:38;;;;;;;1.10;0.60;;;15.70;77.90;;;;;;10476650;28;20289;-66
2023/06/03 04:12:39;;;;;;;1.05;0.80;;;15.70;77.70;;;;;;10484343;28;20685;-66
2023/06/03 04:17:40;;;;;;;1.10;0.60;;;15.60;77.70;;;;;;10489860;28;20020;-66
2023/06/03 04:22:41;;;;;;;1.45;0.75;;;15.70;77.70;;;;;;10474142;28;20472;-65
2023/06/03 04:27:42;;;;;;;1.30;0.80;;;15.60;77.60;;;;;;10480006;28;20024;-66
2023/06/03 04:32:42;;;;;;;1.83;0.80;;;15.60;77.50;;;;;;10476649;28;20066;-65
2023/06/03 04:37:43;;;;;;;1.25;0.70;;;15.60;77.50;;;;;;10479202;28;20021;-65
2023/06/03 04:42:43;;;;;;;1.75;1.02;;;15.60;77.40;;;;;;10475721;28;20028;-65
2023/06/03 04:47:44;;;;;;;1.00;0.63;;;15.60;77.30;;;;;;10472194;28;20055;-66
2023/06/03 04:52:45;;;;;;;0.80;0.65;;;15.60;77.30;;;;;;10485710;28;20107;-66
2023/06/03 04:57:50;;;;;;;1.52;0.80;;;15.50;77.20;;;;;;10482650;28;20091;-64
2023/06/03 05:02:57;;;;;;;1.27;0.63;;;15.50;77.10;;;;;;10477060;28;20031;-66
2023/06/03 05:07:57;;;;;;;1.60;0.75;;;15.60;77.10;;;;;;10479469;28;20016;-66
2023/06/03 05:12:58;;;;;;;1.50;0.70;;;15.50;77.00;;;;;;10475411;28;20055;-66
2023/06/03 05:18:02;;;;;;;1.73;0.70;;;15.50;77.00;;;;;;10488315;28;20028;-66
2023/06/03 05:23:03;;;;;;;1.10;0.60;;;15.50;77.00;;;;;;10486175;28;20028;-66
2023/06/03 05:28:04;;;;;;;1.80;0.93;;;15.50;77.00;;;;;;10485532;28;20028;-66
2023/06/03 05:33:04;;;;;;;0.57;0.50;;;15.50;76.90;;;;;;10488249;28;20028;-66
2023/06/03 05:38:07;;;;;;;1.30;0.70;;;15.50;76.90;;;;;;10471317;28;20420;-66
2023/06/03 05:43:07;;;;;;;1.08;0.57;;;15.50;76.90;;;;;;10485723;28;20407;-67
2023/06/03 05:48:09;;;;;;;1.13;0.70;;;15.50;76.80;;;;;;10482593;28;20036;-65
2023/06/03 05:53:10;;;;;;;0.90;0.60;;;15.50;76.80;;;;;;10481078;28;20705;-65
2023/06/03 05:58:10;;;;;;;1.80;1.00;;;15.50;76.80;;;;;;10482171;28;20020;-66
2023/06/03 06:03:13;;;;;;;1.27;0.63;;;15.60;76.80;;;;;;10464928;28;20484;-66
2023/06/03 06:08:13;;;;;;;1.08;0.80;;;15.50;76.80;;;;;;10487815;28;20032;-66
2023/06/03 06:13:14;;;;;;;1.88;1.00;;;15.50;76.80;;;;;;10484688;28;20031;-66
2023/06/03 06:18:15;;;;;;;1.45;0.70;;;15.50;76.80;;;;;;10477018;28;20017;-65
2023/06/03 06:23:15;;;;;;;1.13;0.80;;;15.50;76.80;;;;;;10479747;28;20129;-66
2023/06/03 06:28:21;;;;;;;2.25;0.73;;;15.60;76.90;;;;;;10472868;28;20033;-65
2023/06/03 06:33:22;;;;;;;2.83;0.82;;;15.50;76.90;;;;;;10472274;28;20242;-65
2023/06/03 06:38:22;;;;;;;0.90;0.70;;;15.60;77.10;;;;;;10477761;28;20021;-67
2023/06/03 06:43:25;;;;;;;1.00;0.70;;;15.60;77.10;;;;;;10480955;28;20024;-67
2023/06/03 06:48:26;;;;;;;1.70;0.73;;;15.60;77.10;;;;;;10483615;28;20023;-67
2023/06/03 06:53:28;;;;;;;0.82;0.60;;;15.60;77.10;;;;;;10468179;28;20029;-68
2023/06/03 06:58:39;;;;;;;0.70;0.57;;;15.60;77.10;;;;;;10472280;28;20125;-68
2023/06/03 07:03:39;;;;;;;1.50;0.70;;;15.70;77.20;;;;;;10476808;28;20313;-67
2023/06/03 07:08:40;;;;;;;1.20;0.75;;;15.70;77.20;;;;;;10484736;28;20089;-67
2023/06/03 07:13:41;;;;;;;1.02;0.80;;;15.70;77.20;;;;;;10483167;28;20029;-67
2023/06/03 07:18:41;;;;;;;2.28;0.80;;;15.70;77.30;;;;;;10485109;28;20130;-67
2023/06/03 07:23:47;;;;;;;2.22;0.70;;;15.80;77.40;;;;;;10475754;28;20060;-67
2023/06/03 07:28:47;;;;;;;1.02;0.77;;;15.80;77.60;;;;;;10482833;28;20048;-66
2023/06/03 07:33:54;;;;;;;2.75;0.73;;;15.80;77.50;;;;;;10482936;28;20287;-67
2023/06/03 07:39:02;;;;;;;0.68;0.60;;;15.90;77.50;;;;;;10480093;28;20028;-67
2023/06/03 07:44:11;;;;;;;4.80;0.73;;;15.90;77.70;;;;;;10477511;28;20641;-72
2023/06/03 07:49:16;;;;;;;5.90;1.20;;;15.90;75.00;;;;;;10479426;28;20031;-72
2023/06/03 07:54:18;;;;;;;5.55;0.82;;;15.90;73.30;;;;;;10476426;28;20278;-73
2023/06/03 07:59:21;;;;;;;5.43;0.90;;;15.90;73.70;;;;;;10475725;28;20012;-75
2023/06/03 08:04:33;;;;;;;6.40;0.95;;;16.10;73.10;;;;;;10473368;28;20095;-71
2023/06/03 08:09:35;;;;;;;1.85;0.73;;;16.10;71.70;;;;;;10468674;28;20040;-70
2023/06/03 08:14:38;;;;;;;1.25;0.90;;;16.20;72.10;;;;;;10478173;28;20070;-71
2023/06/03 08:19:42;;;;;;;1.63;0.50;;;16.30;71.20;;;;;;10484051;28;20030;-71
2023/06/03 08:24:43;;;;;;;2.15;0.90;;;16.50;70.70;;;;;;10478323;28;20020;-71
2023/06/03 08:29:45;;;;;;;2.65;0.80;;;16.40;70.20;;;;;;10469761;28;20021;-71
2023/06/03 08:34:46;;;;;;;1.55;0.90;;;16.60;70.20;;;;;;10469535;28;20047;-72
2023/06/03 08:39:47;;;;;;;1.73;0.68;;;16.60;69.30;;;;;;10473365;28;20043;-71
2023/06/03 08:45:05;;;;;;;2.10;0.88;;;16.70;69.40;;;;;;10486944;28;20027;-70
2023/06/03 08:50:10;;;;;;;1.83;0.67;;;16.80;67.60;;;;;;10474326;28;20116;-70
2023/06/03 08:55:14;;;;;;;1.05;0.60;;;16.70;68.50;;;;;;10481224;28;20770;-70
2023/06/03 09:00:19;;;;;;;0.82;0.60;;;16.70;68.70;;;;;;10479023;28;20027;-71
2023/06/03 09:05:20;;;;;;;2.00;0.60;;;16.50;68.50;;;;;;10480439;28;20029;-70
2023/06/03 09:10:22;;;;;;;1.20;0.43;;;16.50;68.50;;;;;;10482080;28;20024;-71
2023/06/03 09:15:23;;;;;;;1.38;0.60;;;16.30;67.50;;;;;;10483795;28;20470;-70
2023/06/03 09:20:24;;;;;;;2.08;0.60;;;16.20;67.50;;;;;;10476711;28;20028;-70
2023/06/03 09:25:24;;;;;;;2.67;0.70;;;16.40;66.90;;;;;;10483662;28;20025;-71
2023/06/03 09:30:26;;;;;;;0.65;0.52;;;16.60;66.40;;;;;;10471270;28;20020;-71
2023/06/03 09:35:27;;;;;;;0.95;0.63;;;16.80;65.50;;;;;;10479777;28;20103;-71
2023/06/03 09:40:29;;;;;;;0.98;0.45;;;17.00;64.70;;;;;;10482667;28;20257;-71
2023/06/03 09:45:32;;;;;;;2.05;0.88;;;17.10;63.40;;;;;;10485263;28;20020;-71
2023/06/03 09:50:47;;;;;;;3.08;0.70;;;17.30;63.50;;;;;;10482859;28;20659;-70
2023/06/03 09:55:48;;;;;;;3.20;1.40;;;17.50;62.80;;;;;;10493397;28;20024;-71
2023/06/03 10:00:50;;;;;;;0.90;0.60;;;17.50;62.10;;;;;;10487155;28;20093;-71
2023/06/03 10:05:51;;;;;;;1.27;0.68;;;17.50;61.90;;;;;;10480156;28;20016;-71
2023/06/03 10:11:00;;;;;;;3.55;0.60;;;17.60;60.70;;;;;;10475428;28;20312;-71
2023/06/03 10:16:02;;;;;;;1.30;0.75;;;17.60;61.30;;;;;;10484616;28;20128;-70
2023/06/03 10:21:11;;;;;;;2.72;0.60;;;17.70;61.40;;;;;;10481123;28;20120;-70
2023/06/03 10:26:12;;;;;;;1.10;0.57;;;17.80;60.30;;;;;;10476126;28;20061;-70
2023/06/03 10:31:12;;;;;;;4.30;0.73;;;17.90;60.90;;;;;;10478153;28;20106;-70
2023/06/03 10:36:14;;;;;;;1.15;0.60;;;18.10;61.20;;;;;;10484614;28;20536;-70
2023/06/03 10:41:15;;;;;;;2.58;0.73;;;18.20;61.30;;;;;;10484418;28;20029;-72
2023/06/03 10:46:16;;;;;;;0.57;0.52;;;18.20;59.90;;;;;;10482339;28;20399;-72
2023/06/03 10:51:29;;;;;;;1.83;0.82;;;18.20;58.90;;;;;;10478931;28;20028;-72
2023/06/03 10:56:55;;;;;;;3.88;0.60;;;18.30;58.90;;;;;;10478327;28;20222;-71
2023/06/03 11:02:03;;;;;;;1.95;0.57;;;18.40;58.10;;;;;;10486825;28;20013;-72
2023/06/03 11:07:05;;;;;;;2.15;0.68;;;18.50;59.50;;;;;;10474884;28;20112;-78
2023/06/03 11:12:13;;;;;;;2.20;0.70;;;18.60;59.60;;;;;;10481268;28;20036;-70
2023/06/03 11:17:15;;;;;;;1.90;0.80;;;18.80;59.30;;;;;;10482395;28;20518;-73
2023/06/03 11:22:38;;;;;;;2.42;0.85;;;19.00;59.30;;;;;;10479968;28;20587;-70
2023/06/03 11:27:39;;;;;;;1.05;0.55;;;19.20;58.60;;;;;;10468516;28;20013;-71
2023/06/03 11:32:39;;;;;;;3.33;0.68;;;19.40;58.90;;;;;;10479775;28;20027;-71
2023/06/03 11:37:43;;;;;;;0.95;0.77;;;19.40;58.70;;;;;;10472829;28;20020;-71
2023/06/03 11:42:46;;;;;;;8.02;0.80;;;19.40;58.00;;;;;;10480189;28;20107;-68
2023/06/03 11:47:54;;;;;;;2.00;0.70;;;19.00;57.00;;;;;;10480351;28;20031;-70
2023/06/03 11:52:55;;;;;;;1.35;0.60;;;19.60;57.20;;;;;;10465691;28;20400;-70
2023/06/03 11:58:07;;;;;;;3.28;0.70;;;19.70;55.80;;;;;;10476115;28;20021;-70
2023/06/03 12:03:15;;;;;;;15.25;1.45;;;19.80;54.50;;;;;;10473759;28;20052;-69
2023/06/03 12:08:16;;;;;;;15.38;1.45;;;19.90;55.70;;;;;;10456235;28;20407;-70
2023/06/03 12:13:19;;;;;;;43.20;3.30;;;20.00;56.20;;;;;;10484035;28;20025;-69
2023/06/03 12:18:20;;;;;;;9.15;1.25;;;20.30;55.70;;;;;;10470382;28;20061;-70
2023/06/03 12:23:20;;;;;;;5.65;0.73;;;20.50;55.80;;;;;;10476064;28;20411;-70
2023/06/03 12:28:28;;;;;;;3.15;0.90;;;20.40;54.90;;;;;;10488568;28;20028;-70
2023/06/03 12:33:43;;;;;;;0.80;0.50;;;20.50;55.70;;;;;;10478060;28;20032;-70
2023/06/03 12:38:58;;;;;;;1.45;0.35;;;20.60;55.20;;;;;;10475259;28;20029;-70
2023/06/03 12:44:00;;;;;;;1.27;0.50;;;20.80;54.70;;;;;;10478773;28;20099;-70
2023/06/03 12:49:14;;;;;;;2.28;0.65;;;20.80;55.10;;;;;;10478132;28;20017;-70
2023/06/03 12:54:16;;;;;;;0.85;0.73;;;20.80;54.00;;;;;;10485013;28;20031;-67
2023/06/03 12:59:16;;;;;;;1.52;0.80;;;21.00;55.50;;;;;;10478569;28;20520;-67
2023/06/03 13:04:18;;;;;;;0.88;0.50;;;21.20;54.80;;;;;;10475550;28;20354;-67
2023/06/03 13:09:18;;;;;;;15.50;1.50;;;21.40;54.40;;;;;;10472910;28;20033;-66
2023/06/03 13:14:19;;;;;;;25.92;3.55;;;21.40;54.00;;;;;;10482934;28;20614;-63
2023/06/03 13:19:19;;;;;;;25.48;3.92;;;21.40;54.30;;;;;;10483647;28;20028;-63
2023/06/03 13:24:20;;;;;;;14.38;1.58;;;21.20;55.40;;;;;;10479659;28;20032;-64
2023/06/03 13:29:21;;;;;;;9.13;1.27;;;21.10;56.40;;;;;;10481597;28;20452;-63
2023/06/03 13:34:22;;;;;;;6.45;1.58;;;21.00;57.20;;;;;;10478293;28;20017;-63
2023/06/03 13:39:24;;;;;;;4.97;1.73;;;20.90;57.90;;;;;;10478100;28;20087;-63
2023/06/03 13:44:25;;;;;;;4.65;1.13;;;20.90;58.40;;;;;;10479056;28;20399;-63
2023/06/03 13:49:26;;;;;;;7.55;0.80;;;20.80;58.10;;;;;;10481140;28;20028;-68
2023/06/03 13:54:26;;;;;;;3.05;1.00;;;21.10;56.90;;;;;;10482072;28;20051;-68
2023/06/03 13:59:28;;;;;;;4.80;0.80;;;21.60;56.50;;;;;;10479344;28;20100;-67
2023/06/03 14:04:29;;;;;;;3.00;0.70;;;22.10;55.40;;;;;;10480943;28;20020;-67
2023/06/03 14:09:31;;;;;;;1.40;0.70;;;22.40;54.40;;;;;;10467790;28;20025;-67
2023/06/03 14:14:32;;;;;;;1.13;0.82;;;22.60;53.80;;;;;;10474899;28;20052;-67
2023/06/03 14:19:33;;;;;;;1.00;0.50;;;22.70;53.30;;;;;;10481551;28;20104;-67
2023/06/03 14:24:34;;;;;;;1.77;0.68;;;22.80;52.80;;;;;;10487929;28;20398;-67
2023/06/03 14:29:34;;;;;;;1.55;0.80;;;22.90;52.20;;;;;;10477783;28;20021;-67
2023/06/03 14:34:35;;;;;;;3.88;0.80;;;22.90;51.90;;;;;;10479899;28;20024;-76
2023/06/03 14:39:36;;;;;;;1.42;0.73;;;23.10;51.70;;;;;;10479339;28;20321;-64
2023/06/03 14:44:36;;;;;;;1.15;0.77;;;22.70;52.40;;;;;;10478240;28;20047;-63
2023/06/03 14:49:37;;;;;;;0.95;0.70;;;22.80;53.30;;;;;;10485301;28;20040;-63
2023/06/03 14:54:37;;;;;;;3.20;0.90;;;22.60;54.10;;;;;;10484186;28;20428;-73
2023/06/03 14:59:38;;;;;;;1.38;0.75;;;22.80;53.30;;;;;;10472383;28;20021;-66
2023/06/03 15:04:39;;;;;;;3.40;1.27;;;23.00;52.40;;;;;;10470320;28;20024;-67
2023/06/03 15:09:39;;;;;;;0.93;0.77;;;23.10;51.70;;;;;;10479060;28;20027;-68
2023/06/03 15:14:40;;;;;;;3.28;0.80;;;23.30;50.90;;;;;;10479797;28;20481;-67
2023/06/03 15:19:41;;;;;;;2.30;0.73;;;23.40;50.70;;;;;;10487609;28;20016;-67
2023/06/03 15:24:41;;;;;;;3.78;0.80;;;23.40;50.50;;;;;;10477693;28;20699;-67
2023/06/03 15:29:42;;;;;;;1.27;0.70;;;23.30;50.30;;;;;;10474603;28;20032;-67
2023/06/03 15:34:42;;;;;;;1.27;0.93;;;23.20;50.40;;;;;;10480631;28;20289;-67
2023/06/03 15:39:46;;;;;;;1.30;0.60;;;23.30;50.80;;;;;;10486678;28;20074;-67
2023/06/03 15:44:50;;;;;;;2.13;0.90;;;23.30;50.50;;;;;;10485702;28;20020;-67
2023/06/03 15:49:51;;;;;;;1.73;0.85;;;23.10;50.80;;;;;;10488324;28;20016;-68
2023/06/03 15:54:51;;;;;;;2.03;0.80;;;22.90;51.10;;;;;;10479834;28;20016;-67
2023/06/03 15:59:52;;;;;;;1.27;0.90;;;22.70;50.80;;;;;;10486132;28;20123;-67
2023/06/03 16:04:53;;;;;;;3.85;1.17;;;22.40;50.60;;;;;;10479811;28;20028;-67
2023/06/03 16:09:53;;;;;;;1.85;1.00;;;22.20;51.00;;;;;;10488283;28;20027;-67
2023/06/03 16:14:54;;;;;;;1.92;0.90;;;22.00;51.30;;;;;;10483629;28;20028;-67
2023/06/03 16:19:55;;;;;;;1.85;0.80;;;21.90;51.30;;;;;;10471565;28;20036;-68
2023/06/03 16:24:55;;;;;;;3.05;1.02;;;21.80;51.70;;;;;;10493819;28;20078;-71
2023/06/03 16:29:56;;;;;;;2.72;0.80;;;21.70;51.80;;;;;;10471042;28;20484;-71
2023/06/03 16:34:57;;;;;;;2.47;1.42;;;21.60;51.90;;;;;;10490454;28;20024;-70
2023/06/03 16:39:58;;;;;;;2.40;0.90;;;21.50;52.10;;;;;;10492901;28;20086;-70
2023/06/03 16:44:59;;;;;;;2.15;1.00;;;21.50;52.10;;;;;;10468439;28;20569;-70
2023/06/03 16:50:00;;;;;;;1.67;0.98;;;21.30;52.50;;;;;;10470190;28;20019;-70
2023/06/03 16:55:00;;;;;;;2.30;1.17;;;21.30;52.90;;;;;;10468976;28;20399;-71
2023/06/03 17:00:09;;;;;;;2.10;1.08;;;21.20;53.10;;;;;;10476473;28;20029;-70
2023/06/03 17:05:10;;;;;;;1.73;0.90;;;21.10;53.10;;;;;;10468481;28;20044;-70
2023/06/03 17:10:12;;;;;;;2.05;0.80;;;21.00;53.40;;;;;;10478278;28;20131;-70
2023/06/03 17:15:14;;;;;;;1.48;0.80;;;20.90;53.60;;;;;;10479838;28;20055;-70
2023/06/03 17:20:15;;;;;;;1.25;0.50;;;20.80;54.00;;;;;;10487685;28;20039;-70
2023/06/03 17:25:15;;;;;;;1.08;0.90;;;20.70;54.30;;;;;;10476582;28;20515;-71
2023/06/03 17:30:16;;;;;;;2.17;0.85;;;20.60;55.20;;;;;;10472363;28;20443;-71
2023/06/03 17:35:22;;;;;;;3.25;1.20;;;20.50;54.90;;;;;;10481539;28;20020;-71
2023/06/03 17:40:23;;;;;;;1.25;0.80;;;20.50;55.00;;;;;;10466306;28;20078;-71
2023/06/03 17:45:25;;;;;;;1.70;1.40;;;20.40;55.50;;;;;;10483032;28;20082;-71
2023/06/03 17:50:25;;;;;;;4.97;0.73;;;20.30;56.90;;;;;;10475154;28;20045;-71
2023/06/03 17:55:26;;;;;;;1.35;0.80;;;20.30;58.20;;;;;;10478245;28;20127;-71
2023/06/03 18:00:27;;;;;;;1.70;0.82;;;20.00;58.90;;;;;;10480839;28;20502;-70
2023/06/03 18:05:27;;;;;;;4.03;0.77;;;19.80;59.40;;;;;;10485427;28;20480;-71
2023/06/03 18:10:30;;;;;;;3.25;0.80;;;19.70;60.00;;;;;;10482966;28;20074;-65
2023/06/03 18:15:30;;;;;;;1.48;0.98;;;19.60;60.20;;;;;;10491507;28;20029;-65
2023/06/03 18:20:31;;;;;;;1.23;0.73;;;19.80;60.20;;;;;;10473170;28;20037;-66
2023/06/03 18:25:33;;;;;;;1.60;0.70;;;20.00;60.20;;;;;;10472749;28;20123;-66
2023/06/03 18:30:34;;;;;;;1.65;0.60;;;20.00;60.20;;;;;;10477897;28;20016;-66
2023/06/03 18:35:34;;;;;;;0.75;0.70;;;20.20;60.50;;;;;;10473499;28;20051;-66
2023/06/03 18:40:35;;;;;;;1.23;0.60;;;20.30;60.60;;;;;;10477501;28;20423;-66
2023/06/03 18:45:35;;;;;;;5.03;0.75;;;20.40;60.80;;;;;;10480770;28;20117;-67
2023/06/03 18:50:37;;;;;;;2.38;0.60;;;20.40;61.20;;;;;;10482549;28;20450;-65
2023/06/03 18:55:38;;;;;;;5.57;0.82;;;20.30;61.40;;;;;;10481641;28;20070;-65
2023/06/03 19:00:38;;;;;;;3.63;0.93;;;20.30;61.70;;;;;;10480185;28;20492;-65
2023/06/03 19:05:39;;;;;;;4.72;1.10;;;20.30;61.80;;;;;;10460218;28;20504;-65
2023/06/03 19:10:40;;;;;;;1.55;0.70;;;20.30;62.00;;;;;;10472943;28;20029;-65
2023/06/03 19:15:40;;;;;;;1.33;0.63;;;20.40;62.20;;;;;;10485434;28;20032;-65
2023/06/03 19:20:46;;;;;;;1.67;0.70;;;20.30;62.40;;;;;;10475841;28;20020;-65
2023/06/03 19:25:46;;;;;;;1.40;0.75;;;20.30;62.70;;;;;;10474255;28;20428;-65
2023/06/03 19:30:47;;;;;;;2.33;0.68;;;20.30;62.90;;;;;;10473896;28;20029;-65
2023/06/03 19:35:47;;;;;;;4.32;0.63;;;20.30;63.00;;;;;;10479119;28;20108;-65
2023/06/03 19:40:48;;;;;;;2.20;0.80;;;20.20;63.20;;;;;;10479502;28;20020;-65
2023/06/03 19:45:49;;;;;;;0.88;0.50;;;20.20;63.40;;;;;;10477959;28;20027;-65
2023/06/03 19:50:50;;;;;;;5.20;0.60;;;20.20;63.70;;;;;;10480322;28;20024;-65
2023/06/03 19:55:51;;;;;;;0.77;0.60;;;20.10;63.80;;;;;;10474393;28;20024;-66
2023/06/03 20:00:51;;;;;;;0.90;0.55;;;20.10;63.90;;;;;;10471069;28;20404;-66
2023/06/03 20:05:52;;;;;;;0.85;0.50;;;20.10;64.10;;;;;;10474077;28;20351;-65
2023/06/03 20:10:52;;;;;;;0.80;0.50;;;19.90;64.20;;;;;;10481225;28;20522;-66
2023/06/03 20:15:53;;;;;;;1.20;0.50;;;20.00;64.40;;;;;;10473211;28;20516;-64
2023/06/03 20:20:54;;;;;;;1.38;0.60;;;19.90;64.50;;;;;;10473113;28;20044;-66
2023/06/03 20:25:55;;;;;;;0.75;0.50;;;19.80;64.60;;;;;;10476258;28;20039;-66
2023/06/03 20:30:56;;;;;;;1.17;0.60;;;19.80;64.80;;;;;;10480843;28;20017;-66
2023/06/03 20:35:58;;;;;;;0.60;0.57;;;19.80;64.80;;;;;;10483733;28;20025;-65
2023/06/03 20:40:58;;;;;;;0.95;0.70;;;19.80;65.00;;;;;;10468554;28;20086;-66
2023/06/03 20:45:59;;;;;;;1.08;0.68;;;19.70;65.10;;;;;;10473858;28;20109;-65
2023/06/03 20:51:00;;;;;;;1.25;0.50;;;19.70;65.20;;;;;;10480815;28;20044;-65
2023/06/03 20:56:01;;;;;;;2.75;0.80;;;19.60;65.30;;;;;;10474467;28;20548;-65
2023/06/03 21:01:01;;;;;;;0.90;0.70;;;19.60;65.40;;;;;;10488082;28;20378;-66
2023/06/03 21:06:02;;;;;;;1.33;0.70;;;19.50;65.40;;;;;;10485260;28;20141;-66
2023/06/03 21:11:02;;;;;;;1.05;0.70;;;19.50;65.50;;;;;;10484020;28;20043;-65
2023/06/03 21:16:03;;;;;;;1.05;0.70;;;19.50;65.60;;;;;;10487259;28;20024;-66
2023/06/03 21:21:04;;;;;;;2.58;0.50;;;19.40;65.70;;;;;;10485765;28;21280;-66
2023/06/03 21:26:05;;;;;;;0.88;0.63;;;19.30;65.70;;;;;;10483748;28;20503;-65
2023/06/03 21:31:05;;;;;;;1.48;0.68;;;19.30;65.90;;;;;;10484106;28;20032;-66
2023/06/03 21:36:06;;;;;;;0.98;0.75;;;19.30;65.90;;;;;;10484935;28;20035;-65
2023/06/03 21:41:07;;;;;;;1.02;0.80;;;19.20;66.00;;;;;;10481751;28;20029;-66
2023/06/03 21:46:08;;;;;;;2.58;0.68;;;19.30;66.10;;;;;;10479508;28;20028;-66
2023/06/03 21:51:08;;;;;;;1.08;0.68;;;19.10;66.10;;;;;;10482100;28;20637;-66
2023/06/03 21:56:09;;;;;;;0.75;0.65;;;19.10;66.20;;;;;;10488178;28;20032;-65
2023/06/03 22:01:09;;;;;;;1.38;0.63;;;19.10;66.30;;;;;;10475860;28;20056;-65
2023/06/03 22:06:10;;;;;;;1.73;0.77;;;19.10;66.30;;;;;;10483303;28;20040;-65
2023/06/03 22:11:11;;;;;;;3.88;0.80;;;19.00;66.40;;;;;;10483951;28;20078;-65
2023/06/03 22:16:11;;;;;;;1.13;0.80;;;18.90;66.40;;;;;;10481241;28;20025;-66
2023/06/03 22:21:12;;;;;;;0.93;0.77;;;18.90;66.50;;;;;;10488644;28;20025;-65
2023/06/03 22:26:13;;;;;;;1.23;0.73;;;18.90;66.60;;;;;;10485263;28;20017;-65
2023/06/03 22:31:13;;;;;;;1.02;0.70;;;18.80;66.60;;;;;;10476447;28;20023;-65
2023/06/03 22:36:14;;;;;;;1.52;0.52;;;18.70;66.60;;;;;;10473547;28;20040;-65
2023/06/03 22:41:15;;;;;;;1.10;0.70;;;18.70;66.80;;;;;;10471589;28;20032;-65
2023/06/03 22:46:15;;;;;;;1.27;0.60;;;18.60;66.80;;;;;;10469129;28;20055;-65
2023/06/03 22:51:16;;;;;;;1.25;0.80;;;18.60;66.90;;;;;;10481738;28;20754;-65
2023/06/03 22:56:16;;;;;;;1.38;0.73;;;18.60;66.90;;;;;;10483540;28;20108;-65
2023/06/03 23:01:17;;;;;;;1.30;0.80;;;18.50;66.90;;;;;;10468573;28;20474;-65
2023/06/03 23:06:18;;;;;;;2.75;0.77;;;18.50;67.00;;;;;;10481720;28;20082;-65
2023/06/03 23:11:18;;;;;;;1.65;0.80;;;18.40;67.00;;;;;;10477168;28;20032;-65
2023/06/03 23:16:19;;;;;;;0.90;0.77;;;18.50;67.10;;;;;;10472393;28;20036;-65
2023/06/03 23:21:21;;;;;;;1.52;0.90;;;18.40;67.10;;;;;;10479510;28;20525;-66
2023/06/03 23:26:22;;;;;;;1.75;0.90;;;18.30;67.10;;;;;;10483286;28;20028;-65
2023/06/03 23:31:23;;;;;;;1.17;0.90;;;18.30;67.10;;;;;;10474540;28;20300;-65
2023/06/03 23:36:23;;;;;;;1.42;0.90;;;18.30;67.10;;;;;;10479275;28;20029;-65
2023/06/03 23:41:24;;;;;;;2.08;0.90;;;18.20;67.10;;;;;;10479795;28;20060;-65
2023/06/03 23:46:29;;;;;;;1.17;0.65;;;18.20;67.20;;;;;;10471486;28;20052;-65
2023/06/03 23:51:30;;;;;;;1.48;0.80;;;18.20;67.30;;;;;;10483044;28;20449;-66
2023/06/03 23:56:30;;;;;;;1.40;0.80;;;18.10;67.20;;;;;;10474698;28;20074;-65
